Delta Virtual Airport Information Service

Monterrey International Airport

ICAO: MMMY Country: Mexico
Latitude: 25.7785 Longitude: -100.106
Latest Arrival : DAC122 (MMUN-MMMY) Latest Departure : DAC566 (MMMY-MMTO)


WX CaptureLIVE
Data provided by noaa.gov | Fetched at 19:18:15

METAR : MMMY 172242Z 10006G17KT 12SM BKN040 35/17 A2987 RMK 8/500

TAF : MMMY 172242Z 10006G17KT 12SM BKN040 35/17 A2987 RMK 8/500


Runway Data for MMMY
Data provided by openaviationdata.com

Runway ID Mag Var Hdg Length Elevation Surface ILS Freq ILS Id ILS Slope
11 7 112° 9851 ft 1278 ft Concrete -- -- --
16 7 158° 5888 ft 1278 ft Asphalt -- -- --
29 7 292° 9851 ft 1278 ft Concrete 111.1 IMTY 3
34 7 338° 5888 ft 1278 ft Asphalt -- -- --

Monterrey International Airport, Mexico
Use only for reference purposes



Not for navigational purposes.